createdAt,value
2019-03-20T00:00:11.528Z,15.28
2019-03-20T00:02:40.224Z,20.80
2019-03-20T00:05:08.863Z,24.20
2019-03-20T00:07:37.495Z,23.80
2019-03-20T00:10:08.224Z,25.75
2019-03-20T00:12:36.872Z,27.00
2019-03-20T00:15:08.447Z,24.47
2019-03-20T00:20:09.008Z,20.25
2019-03-20T00:22:37.827Z,23.62
2019-03-20T00:25:08.300Z,18.80
2019-03-20T00:27:37.004Z,15.88
2019-03-20T00:30:08.580Z,12.85
2019-03-20T00:32:37.272Z,22.45
2019-03-20T00:35:06.745Z,22.48
2019-03-20T00:37:35.385Z,18.23
2019-03-20T00:40:06.809Z,20.32
2019-03-20T00:42:36.998Z,17.17
2019-03-20T00:45:08.702Z,17.87
2019-03-20T00:50:10.738Z,17.98
2019-03-20T00:52:39.367Z,20.48
2019-03-20T00:55:09.544Z,32.40
2019-03-20T00:57:38.403Z,54.33
2019-03-20T01:00:09.988Z,49.77
2019-03-20T01:02:40.451Z,56.30
2019-03-20T01:05:12.709Z,63.75
2019-03-20T01:07:39.931Z,69.58
2019-03-20T01:10:11.898Z,76.40
2019-03-20T01:12:40.498Z,55.70
2019-03-20T01:15:10.088Z,37.42
2019-03-20T01:17:38.639Z,54.27
2019-03-20T01:20:16.067Z,55.60
2019-03-20T01:22:44.615Z,79.22
2019-03-20T01:25:14.030Z,80.25
2019-03-20T01:27:42.829Z,61.25
2019-03-20T01:30:35.115Z,58.55
2019-03-20T01:33:06.284Z,43.33
2019-03-20T01:35:35.186Z,40.28
2019-03-20T01:38:04.120Z,30.05
2019-03-20T01:40:32.841Z,23.40
2019-03-20T01:43:01.632Z,21.15
2019-03-20T01:45:30.552Z,20.85
2019-03-20T01:47:59.168Z,16.40
2019-03-20T01:50:27.799Z,19.10
2019-03-20T01:52:56.513Z,17.23
2019-03-20T01:55:25.203Z,17.02
2019-03-20T01:57:53.749Z,17.98
2019-03-20T02:00:22.397Z,19.82
2019-03-20T02:02:50.889Z,17.20
2019-03-20T02:05:19.500Z,18.80
2019-03-20T02:07:48.106Z,13.20
2019-03-20T02:10:17.477Z,14.23
2019-03-20T02:12:46.304Z,17.67
2019-03-20T02:15:17.107Z,17.50
2019-03-20T02:17:45.729Z,14.80
2019-03-20T02:20:18.946Z,13.13
2019-03-20T02:22:48.086Z,15.18
2019-03-20T02:25:16.869Z,14.07
2019-03-20T02:27:45.524Z,14.58
2019-03-20T02:30:17.139Z,17.05
2019-03-20T02:32:46.143Z,14.43
2019-03-20T02:35:14.845Z,14.50
2019-03-20T02:37:43.474Z,19.77
2019-03-20T02:40:15.580Z,19.30
2019-03-20T02:42:44.275Z,16.57
2019-03-20T02:45:16.879Z,14.28
2019-03-20T02:47:45.575Z,15.88
2019-03-20T02:50:15.241Z,14.15
2019-03-20T02:52:43.843Z,18.30
2019-03-20T02:55:12.940Z,15.65
2019-03-20T02:57:41.573Z,16.42
2019-03-20T03:00:15.507Z,16.12
2019-03-20T03:02:44.849Z,20.68
2019-03-20T03:05:14.355Z,17.45
2019-03-20T03:07:43.191Z,18.95
2019-03-20T03:10:14.814Z,17.12
2019-03-20T03:15:12.948Z,22.10
2019-03-20T03:17:41.549Z,23.10
2019-03-20T03:20:12.780Z,25.37
2019-03-20T03:22:41.579Z,28.92
2019-03-20T03:25:11.581Z,31.95
2019-03-20T03:27:41.106Z,27.22
2019-03-20T03:30:17.132Z,23.98
2019-03-20T03:32:46.073Z,25.35
2019-03-20T03:35:18.215Z,23.47
2019-03-20T03:37:45.465Z,27.37
2019-03-20T03:40:18.679Z,27.80
2019-03-20T03:42:47.426Z,31.73
2019-03-20T03:45:16.688Z,35.95
2019-03-20T03:47:45.574Z,29.65
2019-03-20T03:50:14.671Z,28.52
2019-03-20T03:52:43.277Z,28.65
2019-03-20T03:55:13.865Z,24.87
2019-03-20T03:57:42.866Z,27.45
2019-03-20T04:00:16.868Z,15.63
2019-03-20T04:02:45.629Z,23.80
2019-03-20T04:05:14.921Z,24.50
2019-03-20T04:07:43.797Z,18.87
2019-03-20T04:10:14.413Z,21.73
2019-03-20T04:12:43.102Z,25.45
2019-03-20T04:15:13.715Z,18.02
2019-03-20T04:17:42.348Z,24.05
2019-03-20T04:20:18.349Z,31.50
2019-03-20T04:22:46.992Z,30.68
2019-03-20T04:25:16.037Z,32.85
2019-03-20T04:27:44.867Z,24.50
2019-03-20T04:30:15.163Z,27.00
2019-03-20T04:32:43.937Z,30.00
2019-03-20T04:35:13.580Z,36.53
2019-03-20T04:37:42.281Z,31.75
2019-03-20T04:40:15.704Z,25.32
2019-03-20T04:42:44.404Z,25.43
2019-03-20T04:45:13.914Z,21.48
2019-03-20T04:47:42.460Z,21.82
2019-03-20T04:50:15.413Z,31.48
2019-03-20T04:52:43.971Z,43.60
2019-03-20T04:55:12.959Z,27.77
2019-03-20T04:57:41.611Z,36.93
2019-03-20T05:00:13.222Z,42.83
2019-03-20T05:02:41.885Z,38.90
2019-03-20T05:05:10.599Z,38.30
2019-03-20T05:07:39.220Z,40.48
2019-03-20T05:10:16.379Z,39.25
2019-03-20T05:12:45.018Z,32.15
2019-03-20T05:15:14.429Z,31.60
2019-03-20T05:17:43.298Z,34.92
2019-03-20T05:20:22.318Z,36.70
2019-03-20T05:22:51.047Z,43.13
2019-03-20T05:25:19.676Z,36.88
2019-03-20T05:27:48.240Z,32.33
2019-03-20T05:30:17.078Z,34.27
2019-03-20T05:32:46.806Z,42.65
2019-03-20T05:35:15.437Z,41.80
2019-03-20T05:37:43.987Z,41.00
2019-03-20T05:40:16.778Z,34.63
2019-03-20T05:42:45.633Z,38.05
2019-03-20T05:45:19.272Z,44.77
2019-03-20T05:47:47.818Z,36.53
2019-03-20T05:50:17.405Z,34.83
2019-03-20T05:52:46.045Z,31.42
2019-03-20T05:55:14.967Z,26.12
2019-03-20T05:57:43.722Z,27.32
2019-03-20T06:00:18.527Z,27.37
2019-03-20T06:02:47.019Z,34.65
2019-03-20T06:05:15.669Z,29.02
2019-03-20T06:07:44.547Z,31.10
2019-03-20T06:10:15.586Z,30.57
2019-03-20T06:12:44.282Z,32.13
2019-03-20T06:15:13.699Z,37.58
2019-03-20T06:17:42.441Z,22.85
2019-03-20T06:20:12.934Z,21.60
2019-03-20T06:22:41.570Z,23.27
2019-03-20T06:25:12.187Z,19.60
2019-03-20T06:27:41.081Z,19.55
2019-03-20T06:30:14.956Z,21.75
2019-03-20T06:32:43.758Z,23.32
2019-03-20T06:35:13.006Z,20.30
2019-03-20T06:37:41.809Z,24.07
2019-03-20T06:40:12.308Z,19.70
2019-03-20T06:42:40.872Z,23.02
2019-03-20T06:45:12.287Z,24.85
2019-03-20T06:47:40.849Z,26.62
2019-03-20T06:50:15.471Z,22.30
2019-03-20T06:52:44.100Z,32.88
2019-03-20T06:55:12.801Z,21.97
2019-03-20T06:57:41.501Z,26.45
2019-03-20T07:00:35.692Z,28.80
2019-03-20T07:03:13.464Z,31.57
2019-03-20T07:06:05.009Z,24.75
2019-03-20T07:08:36.604Z,20.85
2019-03-20T07:11:11.613Z,26.62
2019-03-20T07:13:40.315Z,28.17
2019-03-20T07:16:08.984Z,32.33
2019-03-20T07:18:37.480Z,30.37
2019-03-20T07:21:06.116Z,28.12
2019-03-20T07:23:34.789Z,24.63
2019-03-20T07:26:03.502Z,26.48
2019-03-20T07:28:32.082Z,32.58
2019-03-20T07:31:00.765Z,28.15
2019-03-20T07:33:29.323Z,32.90
2019-03-20T07:35:57.924Z,28.70
2019-03-20T07:38:26.503Z,28.25
2019-03-20T07:40:55.070Z,30.02
2019-03-20T07:43:23.654Z,35.60
2019-03-20T07:45:53.194Z,27.45
2019-03-20T07:48:22.669Z,33.02
2019-03-20T07:50:52.984Z,46.18
2019-03-20T07:53:21.552Z,40.88
2019-03-20T07:55:50.245Z,33.53
2019-03-20T07:58:18.814Z,37.42
2019-03-20T08:00:47.480Z,35.43
2019-03-20T08:03:16.118Z,27.30
2019-03-20T08:05:44.717Z,24.75
2019-03-20T08:08:13.437Z,20.15
2019-03-20T08:10:42.064Z,19.92
2019-03-20T08:13:10.689Z,12.03
2019-03-20T08:15:39.179Z,14.05
2019-03-20T08:18:07.737Z,10.78
2019-03-20T08:20:36.318Z,14.03
2019-03-20T08:23:04.970Z,12.78
2019-03-20T08:25:33.628Z,11.93
2019-03-20T08:28:02.216Z,10.50
2019-03-20T08:30:30.776Z,13.35
2019-03-20T08:32:59.404Z,14.15
2019-03-20T08:35:28.102Z,17.55
2019-03-20T08:37:56.763Z,15.03
2019-03-20T08:40:25.700Z,23.38
2019-03-20T08:42:54.240Z,23.67
2019-03-20T08:45:22.924Z,27.37
2019-03-20T08:47:51.435Z,20.88
2019-03-20T08:50:24.280Z,19.30
2019-03-20T08:52:53.254Z,17.65
2019-03-20T08:55:22.350Z,25.25
2019-03-20T08:57:51.406Z,22.52
2019-03-20T09:00:21.434Z,23.92
2019-03-20T09:02:50.471Z,28.07
2019-03-20T09:05:19.521Z,25.45
2019-03-20T09:07:48.142Z,17.85
2019-03-20T09:10:19.808Z,18.17
2019-03-20T09:12:48.506Z,19.52
2019-03-20T09:15:18.064Z,18.95
2019-03-20T09:17:46.708Z,17.02
2019-03-20T09:20:17.388Z,18.98
2019-03-20T09:22:46.155Z,19.45
2019-03-20T09:25:22.946Z,17.52
2019-03-20T09:27:51.793Z,17.17
2019-03-20T09:30:24.219Z,19.20
2019-03-20T09:32:53.323Z,21.25
2019-03-20T09:35:22.042Z,15.05
2019-03-20T09:37:52.146Z,15.53
2019-03-20T09:40:23.663Z,17.50
2019-03-20T09:42:52.436Z,15.80
2019-03-20T09:45:21.866Z,15.80
2019-03-20T09:47:50.689Z,13.05
2019-03-20T09:50:22.514Z,15.35
2019-03-20T09:52:51.110Z,14.03
2019-03-20T09:55:19.724Z,12.60
2019-03-20T09:57:48.344Z,15.18
2019-03-20T10:00:22.372Z,13.75
2019-03-20T10:02:51.456Z,13.88
2019-03-20T10:05:20.236Z,16.80
2019-03-20T10:07:48.873Z,15.45
2019-03-20T10:10:26.010Z,12.55
2019-03-20T10:12:54.622Z,15.10
2019-03-20T10:15:30.666Z,16.42
2019-03-20T10:17:59.219Z,16.42
2019-03-20T10:20:27.936Z,13.20
2019-03-20T10:22:56.650Z,14.98
2019-03-20T10:25:25.478Z,18.23
2019-03-20T10:27:54.094Z,11.25
2019-03-20T10:30:26.717Z,14.40
2019-03-20T10:32:55.556Z,9.65
2019-03-20T10:35:24.304Z,14.07
2019-03-20T10:37:52.926Z,16.27
2019-03-20T10:40:26.713Z,14.50
2019-03-20T10:42:55.430Z,12.45
2019-03-20T10:45:24.254Z,11.25
2019-03-20T10:47:53.550Z,10.90
2019-03-20T10:50:27.029Z,11.53
2019-03-20T10:52:55.761Z,16.12
2019-03-20T10:55:24.441Z,13.72
2019-03-20T10:57:53.077Z,8.50
2019-03-20T11:00:28.729Z,9.90
2019-03-20T11:02:57.605Z,9.68
2019-03-20T11:05:26.266Z,10.55
2019-03-20T11:07:54.972Z,8.08
2019-03-20T11:10:27.522Z,8.40
2019-03-20T11:12:56.189Z,12.47
2019-03-20T11:15:25.914Z,8.75
2019-03-20T11:17:54.664Z,9.23
2019-03-20T11:20:24.251Z,9.80
2019-03-20T11:22:53.138Z,14.28
2019-03-20T11:25:22.948Z,16.85
2019-03-20T11:27:52.047Z,10.40
2019-03-20T11:30:25.519Z,10.35
2019-03-20T11:32:54.316Z,7.97
2019-03-20T11:35:23.136Z,6.42
2019-03-20T11:37:51.779Z,7.05
2019-03-20T11:40:28.260Z,9.70
2019-03-20T11:42:57.113Z,8.43
2019-03-20T11:45:26.146Z,9.35
2019-03-20T11:47:54.775Z,9.80
2019-03-20T11:50:29.141Z,7.65
2019-03-20T11:52:57.839Z,9.48
2019-03-20T11:55:26.496Z,11.48
2019-03-20T11:57:55.099Z,7.97
2019-03-20T12:00:24.686Z,9.68
2019-03-20T12:02:53.325Z,8.55
2019-03-20T12:05:21.881Z,6.45
2019-03-20T12:07:50.611Z,8.23
2019-03-20T12:10:32.329Z,7.30
2019-03-20T12:13:01.188Z,7.45
2019-03-20T12:15:29.744Z,9.25
2019-03-20T12:17:58.546Z,8.45
2019-03-20T12:20:27.231Z,7.75
2019-03-20T12:22:55.859Z,14.15
2019-03-20T12:25:33.830Z,8.28
2019-03-20T12:28:02.704Z,10.00
2019-03-20T12:30:32.593Z,6.20
2019-03-20T12:33:01.359Z,7.10
2019-03-20T12:35:33.042Z,4.72
2019-03-20T12:38:13.337Z,5.25
2019-03-20T12:40:32.205Z,7.23
2019-03-20T12:43:00.928Z,7.92
2019-03-20T12:45:36.531Z,5.03
2019-03-20T12:48:06.565Z,5.58
2019-03-20T12:50:35.360Z,5.70
2019-03-20T12:53:05.381Z,5.80
2019-03-20T12:55:36.745Z,3.75
2019-03-20T12:58:05.451Z,3.15
2019-03-20T13:00:34.063Z,4.72
2019-03-20T13:03:02.729Z,2.67
2019-03-20T13:05:31.394Z,4.85
2019-03-20T13:08:05.713Z,7.87
2019-03-20T13:10:30.598Z,6.85
2019-03-20T13:12:59.328Z,5.62
2019-03-20T13:15:49.317Z,5.45
2019-03-20T13:18:17.843Z,4.22
2019-03-20T13:20:46.554Z,5.30
2019-03-20T13:23:21.221Z,5.08
2019-03-20T13:25:49.972Z,5.90
2019-03-20T13:28:18.555Z,4.08
2019-03-20T13:30:59.042Z,11.20
2019-03-20T13:33:27.731Z,5.75
2019-03-20T13:35:56.633Z,7.65
2019-03-20T13:38:25.254Z,4.20
2019-03-20T13:40:54.183Z,6.22
2019-03-20T13:43:22.659Z,8.78
2019-03-20T13:45:51.199Z,8.60
2019-03-20T13:48:19.724Z,5.33
2019-03-20T13:50:48.325Z,4.62
2019-03-20T13:53:16.959Z,9.90
2019-03-20T13:55:45.525Z,9.03
2019-03-20T13:58:14.232Z,6.65
2019-03-20T14:00:42.943Z,6.67
2019-03-20T14:03:11.493Z,11.22
2019-03-20T14:05:40.361Z,9.80
2019-03-20T14:08:08.919Z,6.08
2019-03-20T14:10:49.622Z,7.00
2019-03-20T14:13:07.924Z,8.70
2019-03-20T14:15:36.619Z,5.35
2019-03-20T14:18:05.686Z,7.03
2019-03-20T14:20:34.252Z,6.87
2019-03-20T14:23:02.948Z,5.92
2019-03-20T14:25:31.455Z,5.05
2019-03-20T14:28:00.098Z,6.58
2019-03-20T14:30:33.143Z,6.50
2019-03-20T14:33:01.843Z,6.83
2019-03-20T14:35:30.407Z,9.80
2019-03-20T14:37:59.280Z,7.80
2019-03-20T14:40:37.426Z,5.05
2019-03-20T14:43:00.752Z,7.35
2019-03-20T14:45:29.418Z,7.70
2019-03-20T14:47:58.123Z,8.48
2019-03-20T14:50:36.362Z,7.97
2019-03-20T14:53:04.788Z,7.90
2019-03-20T14:55:33.305Z,13.85
2019-03-20T14:58:02.044Z,16.95
2019-03-20T15:00:31.545Z,8.43
2019-03-20T15:03:00.254Z,15.20
2019-03-20T15:05:28.746Z,5.25
2019-03-20T15:07:57.446Z,24.57
2019-03-20T15:10:29.017Z,8.83
2019-03-20T15:12:57.739Z,13.30
2019-03-20T15:15:32.333Z,41.63
2019-03-20T15:18:00.967Z,11.75
2019-03-20T15:20:29.613Z,7.97
2019-03-20T15:22:58.189Z,5.15
2019-03-20T15:25:26.922Z,6.53
2019-03-20T15:27:55.559Z,8.35
2019-03-20T15:30:25.346Z,50.60
2019-03-20T15:32:54.001Z,16.42
2019-03-20T15:35:22.616Z,6.20
2019-03-20T15:37:51.197Z,9.10
2019-03-20T15:40:21.788Z,12.28
2019-03-20T15:42:50.432Z,12.80
2019-03-20T15:45:19.373Z,12.05
2019-03-20T15:47:48.005Z,8.68
2019-03-20T15:50:27.076Z,9.83
2019-03-20T15:52:55.898Z,15.98
2019-03-20T15:55:29.049Z,10.38
2019-03-20T15:57:57.709Z,7.05
2019-03-20T16:00:26.404Z,24.23
2019-03-20T16:03:00.553Z,14.90
2019-03-20T16:05:29.107Z,22.65
2019-03-20T16:07:57.810Z,11.20
2019-03-20T16:10:26.405Z,8.30
2019-03-20T16:12:55.073Z,9.28
2019-03-20T16:15:24.573Z,30.45
2019-03-20T16:17:53.195Z,10.48
2019-03-20T16:20:21.890Z,9.50
2019-03-20T16:22:50.543Z,4.62
2019-03-20T16:25:22.878Z,12.95
2019-03-20T16:27:51.470Z,9.08
2019-03-20T16:30:25.207Z,12.05
2019-03-20T16:32:56.182Z,8.33
2019-03-20T16:35:24.231Z,10.03
2019-03-20T16:37:52.856Z,5.95
2019-03-20T16:40:26.719Z,6.20
2019-03-20T16:42:55.270Z,8.05
2019-03-20T16:45:29.068Z,10.43
2019-03-20T16:47:57.644Z,6.90
2019-03-20T16:50:26.397Z,8.35
2019-03-20T16:52:55.076Z,8.73
2019-03-20T16:55:24.720Z,5.85
2019-03-20T16:57:53.417Z,6.42
2019-03-20T17:00:26.709Z,11.45
2019-03-20T17:02:55.336Z,24.37
2019-03-20T17:05:24.200Z,6.60
2019-03-20T17:07:52.758Z,45.80
2019-03-20T17:10:26.542Z,14.15
2019-03-20T17:12:55.116Z,7.35
2019-03-20T17:15:26.276Z,7.20
2019-03-20T17:17:54.931Z,8.43
2019-03-20T17:20:23.729Z,5.85
2019-03-20T17:22:52.276Z,11.83
2019-03-20T17:25:20.786Z,13.38
2019-03-20T17:27:49.283Z,8.83
2019-03-20T17:30:37.384Z,10.65
2019-03-20T17:33:06.976Z,11.20
2019-03-20T17:35:35.605Z,8.40
2019-03-20T17:38:04.784Z,12.85
2019-03-20T17:40:33.340Z,12.68
2019-03-20T17:43:01.965Z,11.45
2019-03-20T17:45:30.907Z,12.47
2019-03-20T17:47:59.609Z,11.65
2019-03-20T17:50:29.745Z,9.70
2019-03-20T17:52:58.436Z,8.85
2019-03-20T17:55:27.180Z,11.68
2019-03-20T17:57:55.997Z,12.30
2019-03-20T18:00:39.816Z,10.85
2019-03-20T18:03:09.219Z,7.58
2019-03-20T18:05:38.024Z,8.80
2019-03-20T18:08:07.624Z,9.73
2019-03-20T18:10:36.343Z,5.35
2019-03-20T18:13:06.145Z,7.40
2019-03-20T18:15:34.760Z,7.33
2019-03-20T18:18:03.526Z,9.50
2019-03-20T18:20:32.226Z,10.80
2019-03-20T18:23:00.925Z,12.18
2019-03-20T18:25:29.515Z,11.80
2019-03-20T18:27:58.078Z,10.80
2019-03-20T18:30:29.290Z,12.40
2019-03-20T18:32:57.922Z,9.18
2019-03-20T18:35:26.550Z,9.48
2019-03-20T18:37:55.262Z,6.58
2019-03-20T18:40:27.343Z,9.78
2019-03-20T18:42:55.972Z,8.25
2019-03-20T18:45:25.781Z,8.15
2019-03-20T18:47:54.492Z,10.82
2019-03-20T18:50:23.939Z,6.33
2019-03-20T18:52:52.927Z,8.55
2019-03-20T18:55:21.636Z,7.15
2019-03-20T18:57:50.342Z,9.30
2019-03-20T19:00:29.637Z,8.93
2019-03-20T19:03:00.660Z,8.85
2019-03-20T19:05:35.410Z,7.35
2019-03-20T19:08:04.936Z,8.10
2019-03-20T19:10:33.643Z,5.17
2019-03-20T19:13:02.336Z,7.70
2019-03-20T19:15:30.917Z,7.47
2019-03-20T19:17:59.492Z,9.18
2019-03-20T19:20:28.142Z,8.65
2019-03-20T19:22:56.842Z,6.47
2019-03-20T19:25:25.476Z,8.50
2019-03-20T19:27:54.193Z,7.67
2019-03-20T19:30:24.300Z,8.45
2019-03-20T19:32:53.057Z,7.50
2019-03-20T19:35:22.763Z,9.90
2019-03-20T19:37:51.388Z,8.25
2019-03-20T19:40:21.037Z,14.50
2019-03-20T19:42:49.596Z,9.43
2019-03-20T19:45:18.643Z,12.28
2019-03-20T19:47:47.198Z,11.38
2019-03-20T19:50:22.572Z,9.03
2019-03-20T19:52:51.107Z,11.03
2019-03-20T19:55:19.905Z,9.43
2019-03-20T19:57:48.628Z,6.90
2019-03-20T20:00:22.678Z,9.53
2019-03-20T20:02:52.067Z,7.20
2019-03-20T20:05:20.885Z,5.53
2019-03-20T20:07:49.512Z,10.35
2019-03-20T20:10:19.131Z,9.43
2019-03-20T20:12:48.146Z,7.75
2019-03-20T20:15:28.592Z,10.55
2019-03-20T20:17:57.214Z,6.37
2019-03-20T20:20:27.822Z,8.78
2019-03-20T20:22:56.467Z,8.53
2019-03-20T20:25:25.090Z,10.82
2019-03-20T20:27:53.819Z,13.68
2019-03-20T20:30:22.437Z,11.25
2019-03-20T20:32:50.989Z,12.63
2019-03-20T20:35:19.640Z,10.38
2019-03-20T20:37:49.532Z,10.53
2019-03-20T20:40:26.020Z,14.25
2019-03-20T20:42:54.580Z,13.85
2019-03-20T20:45:23.413Z,11.80
2019-03-20T20:47:52.155Z,11.83
2019-03-20T20:50:20.898Z,18.80
2019-03-20T20:52:49.564Z,12.10
2019-03-20T20:55:24.747Z,14.63
2019-03-20T20:57:54.355Z,13.30
2019-03-20T21:00:23.838Z,9.88
2019-03-20T21:02:52.556Z,10.65
2019-03-20T21:05:21.388Z,6.45
2019-03-20T21:07:50.015Z,8.85
2019-03-20T21:10:20.146Z,8.08
2019-03-20T21:12:56.042Z,8.93
2019-03-20T21:15:33.976Z,10.13
2019-03-20T21:18:23.496Z,7.20
2019-03-20T21:20:52.156Z,10.70
2019-03-20T21:23:41.610Z,8.30
2019-03-20T21:26:25.174Z,8.73
2019-03-20T21:29:29.561Z,7.05
2019-03-20T21:32:10.099Z,10.25
2019-03-20T21:35:00.914Z,12.47
2019-03-20T21:37:43.909Z,10.82
2019-03-20T21:40:13.991Z,11.12
2019-03-20T21:43:06.989Z,8.83
2019-03-20T21:45:54.922Z,9.53
2019-03-20T21:48:22.864Z,9.43
2019-03-20T21:50:54.492Z,8.65
2019-03-20T21:53:59.692Z,11.30
2019-03-20T21:56:33.904Z,11.40
2019-03-20T21:59:17.821Z,9.23
2019-03-20T22:02:09.286Z,13.22
2019-03-20T22:04:37.806Z,13.72
2019-03-20T22:07:11.063Z,18.02
2019-03-20T22:09:54.751Z,20.32
2019-03-20T22:12:35.458Z,18.60
2019-03-20T22:15:41.918Z,24.63
2019-03-20T22:18:25.115Z,15.50
2019-03-20T22:21:14.827Z,16.00
2019-03-20T22:23:55.501Z,21.57
2019-03-20T22:26:39.216Z,18.30
2019-03-20T22:29:20.367Z,15.13
2019-03-20T22:32:20.883Z,18.48
2019-03-20T22:35:27.354Z,16.90
2019-03-20T22:37:57.781Z,11.90
2019-03-20T22:41:04.417Z,12.65
2019-03-20T22:43:45.053Z,14.90
2019-03-20T22:46:34.569Z,9.88
2019-03-20T22:49:24.282Z,9.95
2019-03-20T22:52:01.625Z,17.00
2019-03-20T22:54:58.815Z,13.55
2019-03-20T22:57:33.043Z,9.55
2019-03-20T23:00:01.605Z,10.13
2019-03-20T23:02:48.442Z,10.18
2019-03-20T23:05:17.105Z,13.83
2019-03-20T23:07:45.827Z,11.55
2019-03-20T23:10:16.923Z,10.93
2019-03-20T23:12:45.713Z,9.73
2019-03-20T23:15:17.831Z,14.50
2019-03-20T23:17:46.457Z,12.50
2019-03-20T23:20:18.393Z,12.47
2019-03-20T23:22:47.106Z,12.45
2019-03-20T23:25:15.682Z,14.80
2019-03-20T23:27:44.186Z,11.35
2019-03-20T23:30:16.339Z,13.90
2019-03-20T23:32:45.050Z,12.65
2019-03-20T23:35:13.625Z,11.35
2019-03-20T23:37:42.211Z,12.25
2019-03-20T23:40:13.872Z,11.03
2019-03-20T23:45:14.052Z,15.15
2019-03-20T23:50:12.416Z,11.48
2019-03-20T23:52:41.098Z,11.75
2019-03-20T23:55:11.894Z,11.18
2019-03-20T23:57:40.480Z,13.80
